Log in Register

Login to your account

Username *
Password *
Remember Me

Create an account

Fields marked with an asterisk (*) are required.
Name *
Username *
Password *
Verify password *
Email *
Verify email *

Nous contacter

 Téléphone : +33 (0)4 79 54 41 81

Coordonnées détaillées et accès : cliquez ici

 
LFLB °C
    Ferienhaus Ostsee
[source: ADDS]
METAR
LFLB 170200Z AUTO 19007KT 2800 -SN BR FEW007 BKN014 OVC021 00/00 Q1022 =
TAF LFLB 170200Z 1703/1803 18008KT 2000 -SN SCT012 BKN020 TEMPO 1703/1705 1000 SN BKN009 FM170500 VRB05KT 9999 BKN040 TEMPO 1705/1714 -RA BKN009 OVC020 TEMPO 1714/1724 34010KT
TAF
TAF LFLB 170200Z 1703/1803 18008KT 2000 -SN SCT012 BKN020 TEMPO 1703/1705 1000 SN BKN009 FM170500 VRB05KT 9999 BKN040 TEMPO 1705/1714 -RA BKN009 OVC020 TEMPO 1714/1724 34010KT =
SR / SS: 07:11 / 16:21 UTC (Lever/Coucher du soleil le 2021-01-17)
JSN Boot template designed by JoomlaShine.com